sensor_id;sensor_type;location;lat;lon;timestamp;pressure;altitude;pressure_sealevel;temperature;humidity
49979;BME280;35869;50.990;6.962;2023-09-19T00:03:32;100601.19;;;16.75;100.00
49979;BME280;35869;50.990;6.962;2023-09-19T00:08:35;100604.78;;;16.74;100.00
49979;BME280;35869;50.990;6.962;2023-09-19T00:13:38;100617.19;;;16.72;100.00
49979;BME280;35869;50.990;6.962;2023-09-19T00:18:38;100615.56;;;16.69;100.00
49979;BME280;35869;50.990;6.962;2023-09-19T00:23:41;100620.66;;;16.60;100.00
49979;BME280;35869;50.990;6.962;2023-09-19T00:34:10;100621.47;;;16.47;100.00
49979;BME280;35869;50.990;6.962;2023-09-19T00:39:10;100631.91;;;16.49;100.00
49979;BME280;35869;50.990;6.962;2023-09-19T00:44:11;100631.50;;;16.42;100.00
49979;BME280;35869;50.990;6.962;2023-09-19T00:49:11;100633.59;;;16.37;100.00
49979;BME280;35869;50.990;6.962;2023-09-19T00:54:12;100646.06;;;16.34;100.00
49979;BME280;35869;50.990;6.962;2023-09-19T00:59:13;100651.84;;;16.26;100.00
49979;BME280;35869;50.990;6.962;2023-09-19T01:04:13;100651.03;;;16.25;100.00
49979;BME280;35869;50.990;6.962;2023-09-19T01:09:13;100665.28;;;16.21;100.00
49979;BME280;35869;50.990;6.962;2023-09-19T01:25:28;100651.63;;;16.16;100.00
49979;BME280;35869;50.990;6.962;2023-09-19T01:30:35;100673.47;;;16.17;100.00
49979;BME280;35869;50.990;6.962;2023-09-19T01:35:39;100674.50;;;16.14;100.00
49979;BME280;35869;50.990;6.962;2023-09-19T01:40:57;100675.34;;;16.15;100.00
49979;BME280;35869;50.990;6.962;2023-09-19T01:46:21;100685.84;;;16.15;100.00
49979;BME280;35869;50.990;6.962;2023-09-19T01:51:33;100686.25;;;16.09;100.00
49979;BME280;35869;50.990;6.962;2023-09-19T01:56:55;100688.34;;;16.04;100.00
49979;BME280;35869;50.990;6.962;2023-09-19T02:02:16;100704.38;;;15.99;100.00
49979;BME280;35869;50.990;6.962;2023-09-19T02:07:49;100708.66;;;15.87;100.00
49979;BME280;35869;50.990;6.962;2023-09-19T02:13:02;100716.34;;;15.90;100.00
49979;BME280;35869;50.990;6.962;2023-09-19T02:18:49;100715.25;;;15.80;100.00
49979;BME280;35869;50.990;6.962;2023-09-19T02:24:12;100711.16;;;15.76;100.00
49979;BME280;35869;50.990;6.962;2023-09-19T02:34:36;100716.59;;;15.73;100.00
49979;BME280;35869;50.990;6.962;2023-09-19T02:39:36;100720.94;;;15.60;100.00
49979;BME280;35869;50.990;6.962;2023-09-19T02:44:37;100727.09;;;15.73;100.00
49979;BME280;35869;50.990;6.962;2023-09-19T02:49:37;100720.47;;;15.67;100.00
49979;BME280;35869;50.990;6.962;2023-09-19T02:54:37;100724.66;;;15.70;100.00
49979;BME280;35869;50.990;6.962;2023-09-19T02:59:37;100722.81;;;15.58;100.00
49979;BME280;35869;50.990;6.962;2023-09-19T03:04:38;100728.25;;;15.55;100.00
49979;BME280;35869;50.990;6.962;2023-09-19T03:09:38;100736.47;;;15.63;100.00
49979;BME280;35869;50.990;6.962;2023-09-19T03:14:38;100745.00;;;15.66;100.00
49979;BME280;35869;50.990;6.962;2023-09-19T03:19:38;100749.47;;;15.64;100.00
49979;BME280;35869;50.990;6.962;2023-09-19T03:24:39;100754.25;;;15.58;100.00
49979;BME280;35869;50.990;6.962;2023-09-19T03:29:39;100762.31;;;15.55;100.00
49979;BME280;35869;50.990;6.962;2023-09-19T03:34:39;100765.78;;;15.55;100.00
49979;BME280;35869;50.990;6.962;2023-09-19T03:39:39;100767.94;;;15.49;100.00
49979;BME280;35869;50.990;6.962;2023-09-19T03:44:40;100763.44;;;15.51;100.00
49979;BME280;35869;50.990;6.962;2023-09-19T03:49:40;100747.28;;;15.44;100.00
49979;BME280;35869;50.990;6.962;2023-09-19T03:54:40;100752.53;;;15.44;100.00
49979;BME280;35869;50.990;6.962;2023-09-19T03:59:40;100760.38;;;15.44;100.00
49979;BME280;35869;50.990;6.962;2023-09-19T04:15:28;100750.59;;;15.33;100.00
49979;BME280;35869;50.990;6.962;2023-09-19T04:20:29;100756.47;;;15.37;100.00
49979;BME280;35869;50.990;6.962;2023-09-19T04:25:29;100747.22;;;15.31;100.00
49979;BME280;35869;50.990;6.962;2023-09-19T04:30:29;100757.50;;;15.34;100.00
49979;BME280;35869;50.990;6.962;2023-09-19T04:35:29;100764.81;;;15.29;100.00
49979;BME280;35869;50.990;6.962;2023-09-19T04:40:30;100765.13;;;15.25;100.00
49979;BME280;35869;50.990;6.962;2023-09-19T04:45:30;100767.06;;;15.21;100.00
49979;BME280;35869;50.990;6.962;2023-09-19T04:50:30;100774.19;;;15.19;100.00
49979;BME280;35869;50.990;6.962;2023-09-19T04:55:31;100774.38;;;15.16;100.00
49979;BME280;35869;50.990;6.962;2023-09-19T05:00:31;100779.59;;;15.16;100.00
49979;BME280;35869;50.990;6.962;2023-09-19T05:05:34;100777.28;;;15.11;100.00
49979;BME280;35869;50.990;6.962;2023-09-19T05:10:34;100790.75;;;15.05;100.00
49979;BME280;35869;50.990;6.962;2023-09-19T05:15:34;100786.53;;;15.03;100.00
49979;BME280;35869;50.990;6.962;2023-09-19T05:20:35;100782.88;;;15.05;100.00
49979;BME280;35869;50.990;6.962;2023-09-19T05:25:36;100801.31;;;15.04;100.00
49979;BME280;35869;50.990;6.962;2023-09-19T05:30:36;100816.66;;;14.96;100.00
49979;BME280;35869;50.990;6.962;2023-09-19T05:35:37;100823.75;;;14.93;100.00
49979;BME280;35869;50.990;6.962;2023-09-19T05:40:37;100823.00;;;14.91;100.00
49979;BME280;35869;50.990;6.962;2023-09-19T05:45:37;100831.13;;;14.87;100.00
49979;BME280;35869;50.990;6.962;2023-09-19T05:50:37;100843.28;;;14.88;100.00
49979;BME280;35869;50.990;6.962;2023-09-19T05:55:40;100848.44;;;14.89;100.00
49979;BME280;35869;50.990;6.962;2023-09-19T06:00:41;100854.56;;;14.88;100.00
49979;BME280;35869;50.990;6.962;2023-09-19T06:05:41;100866.56;;;14.92;100.00
49979;BME280;35869;50.990;6.962;2023-09-19T06:10:41;100870.00;;;14.93;100.00
49979;BME280;35869;50.990;6.962;2023-09-19T06:15:41;100878.81;;;14.92;100.00
49979;BME280;35869;50.990;6.962;2023-09-19T06:20:41;100884.03;;;14.92;100.00
49979;BME280;35869;50.990;6.962;2023-09-19T06:25:42;100895.25;;;14.94;100.00
49979;BME280;35869;50.990;6.962;2023-09-19T06:30:43;100897.50;;;15.00;100.00
49979;BME280;35869;50.990;6.962;2023-09-19T06:35:43;100894.22;;;14.97;100.00
49979;BME280;35869;50.990;6.962;2023-09-19T06:40:43;100905.53;;;14.97;100.00
49979;BME280;35869;50.990;6.962;2023-09-19T06:45:45;100903.66;;;14.99;100.00
49979;BME280;35869;50.990;6.962;2023-09-19T06:50:45;100902.81;;;14.99;100.00
49979;BME280;35869;50.990;6.962;2023-09-19T06:55:45;100899.28;;;15.00;100.00
49979;BME280;35869;50.990;6.962;2023-09-19T07:00:46;100899.09;;;15.03;100.00
49979;BME280;35869;50.990;6.962;2023-09-19T07:05:49;100906.59;;;15.09;100.00
49979;BME280;35869;50.990;6.962;2023-09-19T07:11:06;100903.03;;;15.10;100.00
49979;BME280;35869;50.990;6.962;2023-09-19T07:22:19;100905.28;;;15.16;100.00
49979;BME280;35869;50.990;6.962;2023-09-19T07:27:19;100910.34;;;15.19;100.00
49979;BME280;35869;50.990;6.962;2023-09-19T07:37:58;100913.31;;;15.27;100.00
49979;BME280;35869;50.990;6.962;2023-09-19T07:43:55;100931.28;;;15.33;100.00
49979;BME280;35869;50.990;6.962;2023-09-19T07:49:16;100916.41;;;15.34;100.00
49979;BME280;35869;50.990;6.962;2023-09-19T07:54:17;100926.63;;;15.38;100.00
49979;BME280;35869;50.990;6.962;2023-09-19T07:59:17;100935.03;;;15.43;100.00
49979;BME280;35869;50.990;6.962;2023-09-19T08:04:21;100928.47;;;15.51;100.00
49979;BME280;35869;50.990;6.962;2023-09-19T08:09:21;100926.97;;;15.61;100.00
49979;BME280;35869;50.990;6.962;2023-09-19T08:14:21;100924.63;;;15.56;100.00
49979;BME280;35869;50.990;6.962;2023-09-19T08:19:21;100930.63;;;15.58;100.00
49979;BME280;35869;50.990;6.962;2023-09-19T08:24:22;100928.97;;;15.71;100.00
49979;BME280;35869;50.990;6.962;2023-09-19T08:29:23;100924.38;;;15.75;100.00
49979;BME280;35869;50.990;6.962;2023-09-19T08:34:24;100926.75;;;15.92;100.00
49979;BME280;35869;50.990;6.962;2023-09-19T08:39:25;100933.06;;;15.90;100.00
49979;BME280;35869;50.990;6.962;2023-09-19T08:44:26;100930.78;;;15.98;100.00
49979;BME280;35869;50.990;6.962;2023-09-19T08:49:53;100921.50;;;16.07;100.00
49979;BME280;35869;50.990;6.962;2023-09-19T08:54:58;100928.59;;;16.05;100.00
49979;BME280;35869;50.990;6.962;2023-09-19T08:59:59;100918.13;;;16.32;97.71
49979;BME280;35869;50.990;6.962;2023-09-19T09:05:01;100933.25;;;16.41;97.80
49979;BME280;35869;50.990;6.962;2023-09-19T09:10:10;100931.63;;;16.52;98.01
49979;BME280;35869;50.990;6.962;2023-09-19T09:15:10;100932.78;;;16.48;95.57
49979;BME280;35869;50.990;6.962;2023-09-19T09:20:11;100934.84;;;16.70;92.53
49979;BME280;35869;50.990;6.962;2023-09-19T09:25:11;100928.16;;;16.79;91.92
49979;BME280;35869;50.990;6.962;2023-09-19T09:30:35;100918.59;;;16.78;91.43
49979;BME280;35869;50.990;6.962;2023-09-19T09:35:35;100906.09;;;16.82;91.99
49979;BME280;35869;50.990;6.962;2023-09-19T09:40:46;100914.50;;;16.87;91.70
49979;BME280;35869;50.990;6.962;2023-09-19T09:46:15;100911.34;;;16.94;89.67
49979;BME280;35869;50.990;6.962;2023-09-19T09:51:16;100908.22;;;16.89;86.00
49979;BME280;35869;50.990;6.962;2023-09-19T09:56:31;100911.56;;;17.04;86.79
49979;BME280;35869;50.990;6.962;2023-09-19T10:01:48;100905.16;;;17.21;84.89
49979;BME280;35869;50.990;6.962;2023-09-19T10:06:49;100896.31;;;17.35;87.27
49979;BME280;35869;50.990;6.962;2023-09-19T10:12:07;100902.19;;;17.51;86.71
49979;BME280;35869;50.990;6.962;2023-09-19T10:17:13;100896.38;;;17.58;82.10
49979;BME280;35869;50.990;6.962;2023-09-19T10:22:20;100897.03;;;17.49;84.03
49979;BME280;35869;50.990;6.962;2023-09-19T10:27:21;100887.50;;;17.48;81.50
49979;BME280;35869;50.990;6.962;2023-09-19T10:32:23;100883.94;;;17.86;81.25
49979;BME280;35869;50.990;6.962;2023-09-19T10:37:25;100879.63;;;18.33;77.44
49979;BME280;35869;50.990;6.962;2023-09-19T10:42:28;100875.94;;;18.11;81.79
49979;BME280;35869;50.990;6.962;2023-09-19T10:47:32;100875.66;;;18.03;83.12
49979;BME280;35869;50.990;6.962;2023-09-19T10:52:33;100879.56;;;18.22;82.59
49979;BME280;35869;50.990;6.962;2023-09-19T10:57:38;100872.97;;;18.51;78.62
49979;BME280;35869;50.990;6.962;2023-09-19T11:02:38;100877.50;;;18.14;77.34
49979;BME280;35869;50.990;6.962;2023-09-19T11:07:57;100872.78;;;18.65;79.27
49979;BME280;35869;50.990;6.962;2023-09-19T11:12:58;100867.34;;;18.80;79.34
49979;BME280;35869;50.990;6.962;2023-09-19T11:23:43;100864.22;;;18.75;79.81
49979;BME280;35869;50.990;6.962;2023-09-19T11:28:46;100860.16;;;18.71;76.20
49979;BME280;35869;50.990;6.962;2023-09-19T11:33:46;100872.56;;;18.69;75.28
49979;BME280;35869;50.990;6.962;2023-09-19T11:43:54;100863.28;;;18.87;75.80
49979;BME280;35869;50.990;6.962;2023-09-19T11:49:13;100876.59;;;19.08;75.80
49979;BME280;35869;50.990;6.962;2023-09-19T11:54:15;100882.47;;;19.00;74.05
49979;BME280;35869;50.990;6.962;2023-09-19T11:59:31;100866.53;;;19.35;75.24
49979;BME280;35869;50.990;6.962;2023-09-19T12:04:42;100866.63;;;19.45;75.33
49979;BME280;35869;50.990;6.962;2023-09-19T12:09:43;100873.00;;;19.31;70.96
49979;BME280;35869;50.990;6.962;2023-09-19T12:14:48;100875.31;;;19.58;75.33
49979;BME280;35869;50.990;6.962;2023-09-19T12:19:52;100874.78;;;19.53;71.19
49979;BME280;35869;50.990;6.962;2023-09-19T12:25:06;100855.22;;;19.89;70.98
49979;BME280;35869;50.990;6.962;2023-09-19T12:30:07;100843.16;;;20.08;68.58
49979;BME280;35869;50.990;6.962;2023-09-19T12:35:11;100845.13;;;19.94;74.10
49979;BME280;35869;50.990;6.962;2023-09-19T12:40:26;100845.63;;;19.88;70.93
49979;BME280;35869;50.990;6.962;2023-09-19T12:45:45;100863.47;;;19.96;69.96
49979;BME280;35869;50.990;6.962;2023-09-19T12:51:02;100840.13;;;19.80;68.49
49979;BME280;35869;50.990;6.962;2023-09-19T12:56:03;100842.38;;;19.85;66.92
49979;BME280;35869;50.990;6.962;2023-09-19T13:01:19;100832.00;;;20.04;66.34
49979;BME280;35869;50.990;6.962;2023-09-19T13:11:51;100833.72;;;19.94;65.46
49979;BME280;35869;50.990;6.962;2023-09-19T13:17:00;100810.88;;;20.04;66.88
49979;BME280;35869;50.990;6.962;2023-09-19T13:22:03;100816.56;;;20.20;66.26
49979;BME280;35869;50.990;6.962;2023-09-19T13:27:31;100814.44;;;20.14;65.38
49979;BME280;35869;50.990;6.962;2023-09-19T13:32:35;100814.78;;;20.21;66.65
49979;BME280;35869;50.990;6.962;2023-09-19T13:37:37;100812.97;;;20.21;66.81
49979;BME280;35869;50.990;6.962;2023-09-19T13:42:39;100813.50;;;20.36;65.16
49979;BME280;35869;50.990;6.962;2023-09-19T13:47:40;100804.94;;;20.44;64.74
49979;BME280;35869;50.990;6.962;2023-09-19T13:53:00;100818.69;;;20.59;67.54
49979;BME280;35869;50.990;6.962;2023-09-19T13:58:10;100816.59;;;20.83;68.34
49979;BME280;35869;50.990;6.962;2023-09-19T14:03:10;100812.22;;;20.72;66.36
49979;BME280;35869;50.990;6.962;2023-09-19T14:08:11;100825.34;;;20.63;68.08
49979;BME280;35869;50.990;6.962;2023-09-19T14:13:11;100816.22;;;20.67;64.57
49979;BME280;35869;50.990;6.962;2023-09-19T14:18:14;100816.84;;;20.80;64.85
49979;BME280;35869;50.990;6.962;2023-09-19T14:23:15;100809.84;;;20.48;62.50
49979;BME280;35869;50.990;6.962;2023-09-19T14:28:16;100818.28;;;20.63;64.79
49979;BME280;35869;50.990;6.962;2023-09-19T14:33:21;100822.09;;;20.49;62.70
49979;BME280;35869;50.990;6.962;2023-09-19T14:38:22;100830.78;;;20.61;65.10
49979;BME280;35869;50.990;6.962;2023-09-19T14:43:23;100820.28;;;20.50;65.25
49979;BME280;35869;50.990;6.962;2023-09-19T14:48:32;100817.19;;;20.66;67.03
49979;BME280;35869;50.990;6.962;2023-09-19T14:53:38;100823.47;;;20.74;63.87
49979;BME280;35869;50.990;6.962;2023-09-19T14:58:38;100813.56;;;20.67;66.92
49979;BME280;35869;50.990;6.962;2023-09-19T15:03:42;100823.97;;;20.59;65.34
49979;BME280;35869;50.990;6.962;2023-09-19T15:08:44;100818.41;;;20.41;63.75
49979;BME280;35869;50.990;6.962;2023-09-19T15:13:51;100816.94;;;20.48;65.75
49979;BME280;35869;50.990;6.962;2023-09-19T15:18:52;100817.78;;;20.48;67.46
49979;BME280;35869;50.990;6.962;2023-09-19T15:23:52;100812.41;;;20.39;66.71
49979;BME280;35869;50.990;6.962;2023-09-19T15:28:56;100811.69;;;20.37;65.64
49979;BME280;35869;50.990;6.962;2023-09-19T15:33:56;100811.09;;;20.33;65.21
49979;BME280;35869;50.990;6.962;2023-09-19T15:39:04;100808.00;;;20.28;65.88
49979;BME280;35869;50.990;6.962;2023-09-19T15:44:15;100805.31;;;20.39;67.42
49979;BME280;35869;50.990;6.962;2023-09-19T15:49:15;100814.16;;;20.29;65.62
49979;BME280;35869;50.990;6.962;2023-09-19T15:54:19;100810.78;;;20.27;64.49
49979;BME280;35869;50.990;6.962;2023-09-19T15:59:19;100797.88;;;20.23;66.01
49979;BME280;35869;50.990;6.962;2023-09-19T16:04:20;100812.19;;;20.10;64.36
49979;BME280;35869;50.990;6.962;2023-09-19T16:09:25;100798.44;;;20.06;65.17
49979;BME280;35869;50.990;6.962;2023-09-19T16:14:26;100790.97;;;20.11;64.32
49979;BME280;35869;50.990;6.962;2023-09-19T16:19:26;100804.16;;;20.11;67.43
49979;BME280;35869;50.990;6.962;2023-09-19T16:24:26;100791.47;;;20.05;66.21
49979;BME280;35869;50.990;6.962;2023-09-19T16:29:29;100799.13;;;20.08;66.55
49979;BME280;35869;50.990;6.962;2023-09-19T16:34:29;100805.16;;;19.99;67.31
49979;BME280;35869;50.990;6.962;2023-09-19T16:39:30;100815.78;;;20.09;68.25
49979;BME280;35869;50.990;6.962;2023-09-19T16:44:32;100804.72;;;19.94;66.69
49979;BME280;35869;50.990;6.962;2023-09-19T16:49:33;100809.00;;;19.63;65.52
49979;BME280;35869;50.990;6.962;2023-09-19T16:54:34;100806.09;;;19.77;67.21
49979;BME280;35869;50.990;6.962;2023-09-19T16:59:34;100806.16;;;19.87;67.48
49979;BME280;35869;50.990;6.962;2023-09-19T17:04:34;100804.06;;;19.69;67.25
49979;BME280;35869;50.990;6.962;2023-09-19T17:09:35;100809.69;;;19.76;68.18
49979;BME280;35869;50.990;6.962;2023-09-19T17:14:35;100808.13;;;19.74;69.71
49979;BME280;35869;50.990;6.962;2023-09-19T17:19:35;100810.06;;;19.72;67.87
49979;BME280;35869;50.990;6.962;2023-09-19T17:24:36;100812.09;;;19.68;67.71
49979;BME280;35869;50.990;6.962;2023-09-19T17:29:36;100812.47;;;19.63;69.20
49979;BME280;35869;50.990;6.962;2023-09-19T17:34:37;100808.16;;;19.51;67.67
49979;BME280;35869;50.990;6.962;2023-09-19T17:39:37;100813.91;;;19.56;68.35
49979;BME280;35869;50.990;6.962;2023-09-19T17:44:38;100806.75;;;19.47;69.07
49979;BME280;35869;50.990;6.962;2023-09-19T17:49:39;100816.56;;;19.34;67.95
49979;BME280;35869;50.990;6.962;2023-09-19T17:54:39;100812.75;;;19.15;67.96
49979;BME280;35869;50.990;6.962;2023-09-19T17:59:40;100808.22;;;19.17;68.17
49979;BME280;35869;50.990;6.962;2023-09-19T18:04:40;100821.16;;;19.09;69.20
49979;BME280;35869;50.990;6.962;2023-09-19T18:09:40;100821.97;;;19.21;69.52
49979;BME280;35869;50.990;6.962;2023-09-19T18:14:41;100823.44;;;19.14;70.60
49979;BME280;35869;50.990;6.962;2023-09-19T18:19:43;100824.25;;;19.14;70.57
49979;BME280;35869;50.990;6.962;2023-09-19T18:24:46;100829.78;;;19.11;70.07
49979;BME280;35869;50.990;6.962;2023-09-19T18:29:47;100830.22;;;19.05;70.45
49979;BME280;35869;50.990;6.962;2023-09-19T18:34:47;100827.59;;;19.05;69.61
49979;BME280;35869;50.990;6.962;2023-09-19T18:39:47;100835.63;;;19.04;69.84
49979;BME280;35869;50.990;6.962;2023-09-19T18:44:48;100840.31;;;19.00;70.97
49979;BME280;35869;50.990;6.962;2023-09-19T18:49:51;100852.75;;;18.98;70.67
49979;BME280;35869;50.990;6.962;2023-09-19T18:54:57;100848.91;;;18.91;71.29
49979;BME280;35869;50.990;6.962;2023-09-19T18:59:57;100848.91;;;18.91;72.48
49979;BME280;35869;50.990;6.962;2023-09-19T19:05:01;100846.97;;;18.82;73.72
49979;BME280;35869;50.990;6.962;2023-09-19T19:10:02;100848.22;;;18.89;72.89
49979;BME280;35869;50.990;6.962;2023-09-19T19:15:03;100848.22;;;18.89;73.91
49979;BME280;35869;50.990;6.962;2023-09-19T19:20:04;100843.28;;;18.84;73.09
49979;BME280;35869;50.990;6.962;2023-09-19T19:25:04;100845.09;;;18.84;72.22
49979;BME280;35869;50.990;6.962;2023-09-19T19:30:05;100842.44;;;18.84;72.70
49979;BME280;35869;50.990;6.962;2023-09-19T19:35:06;100840.03;;;18.81;72.68
49979;BME280;35869;50.990;6.962;2023-09-19T19:40:15;100832.25;;;18.79;73.78
49979;BME280;35869;50.990;6.962;2023-09-19T19:45:17;100829.75;;;18.78;73.44
49979;BME280;35869;50.990;6.962;2023-09-19T19:50:18;100833.09;;;18.80;72.37
49979;BME280;35869;50.990;6.962;2023-09-19T19:55:18;100830.72;;;18.77;72.08
49979;BME280;35869;50.990;6.962;2023-09-19T20:00:19;100842.19;;;18.76;73.44
49979;BME280;35869;50.990;6.962;2023-09-19T20:05:19;100852.13;;;18.72;73.72
49979;BME280;35869;50.990;6.962;2023-09-19T20:10:19;100846.03;;;18.72;74.07
49979;BME280;35869;50.990;6.962;2023-09-19T20:15:22;100834.97;;;18.67;73.91
49979;BME280;35869;50.990;6.962;2023-09-19T20:20:22;100832.13;;;18.70;74.37
49979;BME280;35869;50.990;6.962;2023-09-19T20:25:23;100821.94;;;18.65;74.69
49979;BME280;35869;50.990;6.962;2023-09-19T20:30:23;100824.44;;;18.67;74.21
49979;BME280;35869;50.990;6.962;2023-09-19T20:35:28;100843.75;;;18.67;75.87
49979;BME280;35869;50.990;6.962;2023-09-19T20:40:28;100845.63;;;18.65;76.24
49979;BME280;35869;50.990;6.962;2023-09-19T20:45:30;100846.69;;;18.62;76.02
49979;BME280;35869;50.990;6.962;2023-09-19T20:50:30;100848.59;;;18.60;75.86
49979;BME280;35869;50.990;6.962;2023-09-19T20:55:30;100849.44;;;18.61;76.51
49979;BME280;35869;50.990;6.962;2023-09-19T21:00:31;100846.94;;;18.59;75.64
49979;BME280;35869;50.990;6.962;2023-09-19T21:05:31;100844.53;;;18.56;76.38
49979;BME280;35869;50.990;6.962;2023-09-19T21:10:32;100842.97;;;18.54;76.94
49979;BME280;35869;50.990;6.962;2023-09-19T21:15:32;100842.34;;;18.50;76.98
49979;BME280;35869;50.990;6.962;2023-09-19T21:20:33;100839.84;;;18.49;77.53
49979;BME280;35869;50.990;6.962;2023-09-19T21:25:33;100829.31;;;18.49;76.70
49979;BME280;35869;50.990;6.962;2023-09-19T21:30:34;100826.81;;;18.47;77.67
49979;BME280;35869;50.990;6.962;2023-09-19T21:35:43;100825.22;;;18.45;78.22
49979;BME280;35869;50.990;6.962;2023-09-19T21:40:43;100830.38;;;18.46;78.09
49979;BME280;35869;50.990;6.962;2023-09-19T21:45:44;100819.97;;;18.45;79.02
49979;BME280;35869;50.990;6.962;2023-09-19T21:50:52;100815.03;;;18.40;77.75
49979;BME280;35869;50.990;6.962;2023-09-19T21:56:01;100816.63;;;18.43;79.32
49979;BME280;35869;50.990;6.962;2023-09-19T22:01:01;100816.00;;;18.39;79.51
49979;BME280;35869;50.990;6.962;2023-09-19T22:06:08;100814.22;;;18.39;78.36
49979;BME280;35869;50.990;6.962;2023-09-19T22:11:09;100823.06;;;18.38;79.26
49979;BME280;35869;50.990;6.962;2023-09-19T22:16:14;100811.19;;;18.33;78.78
49979;BME280;35869;50.990;6.962;2023-09-19T22:21:16;100804.88;;;18.35;77.84
49979;BME280;35869;50.990;6.962;2023-09-19T22:26:17;100802.25;;;18.35;79.52
49979;BME280;35869;50.990;6.962;2023-09-19T22:31:25;100810.63;;;18.29;79.13
49979;BME280;35869;50.990;6.962;2023-09-19T22:36:27;100807.34;;;18.26;79.58
49979;BME280;35869;50.990;6.962;2023-09-19T22:41:28;100802.09;;;18.26;80.12
49979;BME280;35869;50.990;6.962;2023-09-19T22:46:28;100810.22;;;18.23;79.55
49979;BME280;35869;50.990;6.962;2023-09-19T22:51:28;100805.06;;;18.21;81.24
49979;BME280;35869;50.990;6.962;2023-09-19T22:56:28;100805.31;;;18.18;80.48
49979;BME280;35869;50.990;6.962;2023-09-19T23:01:29;100812.59;;;18.15;80.03
49979;BME280;35869;50.990;6.962;2023-09-19T23:06:34;100809.31;;;18.11;81.92
49979;BME280;35869;50.990;6.962;2023-09-19T23:11:35;100811.50;;;18.06;81.36
49979;BME280;35869;50.990;6.962;2023-09-19T23:16:35;100811.69;;;18.03;81.78
49979;BME280;35869;50.990;6.962;2023-09-19T23:21:35;100810.25;;;17.99;82.17
49979;BME280;35869;50.990;6.962;2023-09-19T23:26:36;100805.81;;;17.99;81.43
49979;BME280;35869;50.990;6.962;2023-09-19T23:31:36;100811.44;;;17.95;81.79
49979;BME280;35869;50.990;6.962;2023-09-19T23:36:36;100808.91;;;17.93;82.92
49979;BME280;35869;50.990;6.962;2023-09-19T23:41:37;100806.63;;;17.89;82.62
49979;BME280;35869;50.990;6.962;2023-09-19T23:46:37;100808.41;;;17.88;83.20
49979;BME280;35869;50.990;6.962;2023-09-19T23:51:38;100805.06;;;17.86;82.64
49979;BME280;35869;50.990;6.962;2023-09-19T23:56:38;100805.16;;;17.84;83.36
